createdAt,value
2023-05-04T00:00:21.220Z,98956.94
2023-05-04T00:01:22.785Z,98941.13
2023-05-04T00:02:24.370Z,98943.59
2023-05-04T00:03:26.154Z,98939.50
2023-05-04T00:04:28.391Z,98940.66
2023-05-04T00:05:30.010Z,98950.22
2023-05-04T00:06:32.412Z,98943.97
2023-05-04T00:07:34.384Z,98939.81
2023-05-04T00:08:35.923Z,98938.53
2023-05-04T00:09:37.632Z,98930.53
2023-05-04T00:10:39.163Z,98935.69
2023-05-04T00:11:41.620Z,98941.63
2023-05-04T00:12:43.195Z,98939.97
2023-05-04T00:13:44.770Z,98938.31
2023-05-04T00:14:46.293Z,98938.31
2023-05-04T00:15:47.857Z,98920.94
2023-05-04T00:16:49.884Z,98924.50
2023-05-04T00:17:51.697Z,98938.75
2023-05-04T00:18:53.294Z,98936.28
2023-05-04T00:19:55.000Z,98931.91
2023-05-04T00:20:56.873Z,98917.78
2023-05-04T00:21:58.500Z,98922.09
2023-05-04T00:23:00.085Z,98930.97
2023-05-04T00:24:02.422Z,98933.09
2023-05-04T00:25:04.519Z,98924.25
2023-05-04T00:26:06.639Z,98903.38
2023-05-04T00:27:08.796Z,98940.03
2023-05-04T00:28:10.549Z,98927.78
2023-05-04T00:29:12.199Z,98928.25
2023-05-04T00:30:14.169Z,98931.19
2023-05-04T00:31:19.292Z,98924.13
2023-05-04T00:32:21.273Z,98923.28
2023-05-04T00:33:22.948Z,98928.94
2023-05-04T00:34:24.819Z,98924.47
2023-05-04T00:35:26.884Z,98911.72
2023-05-04T00:36:29.437Z,98876.50
2023-05-04T00:37:31.216Z,98856.06
2023-05-04T00:38:47.121Z,98924.56
2023-05-04T00:39:48.838Z,98920.69
2023-05-04T00:40:50.973Z,98928.09
2023-05-04T00:41:52.879Z,98911.44
2023-05-04T00:42:54.476Z,98908.25
2023-05-04T00:43:56.061Z,98921.50
2023-05-04T00:44:57.599Z,98904.38
2023-05-04T00:45:59.102Z,98923.84
2023-05-04T00:47:00.746Z,98926.44
2023-05-04T00:48:02.389Z,98923.94
2023-05-04T00:49:04.192Z,98917.13
2023-05-04T00:50:07.002Z,98921.81
2023-05-04T00:51:08.707Z,98918.09
2023-05-04T00:52:10.247Z,98900.97
2023-05-04T00:53:11.821Z,98910.75
2023-05-04T00:54:15.069Z,98895.47
2023-05-04T00:55:16.670Z,98910.25
2023-05-04T00:56:18.323Z,98906.22
2023-05-04T00:57:19.842Z,98913.88
2023-05-04T00:58:21.772Z,98923.06
2023-05-04T00:59:23.335Z,98920.00
2023-05-04T01:00:24.929Z,98915.25
2023-05-04T01:01:26.844Z,98920.44
2023-05-04T01:02:28.428Z,98878.75
2023-05-04T01:03:30.032Z,98921.50
2023-05-04T01:04:31.638Z,98917.97
2023-05-04T01:05:36.426Z,98917.81
2023-05-04T01:06:47.649Z,98915.44
2023-05-04T01:07:58.988Z,98923.97
2023-05-04T01:09:19.502Z,98924.56
2023-05-04T01:10:26.408Z,98903.63
2023-05-04T01:11:41.229Z,98902.88
2023-05-04T01:12:45.079Z,98915.53
2023-05-04T01:13:46.946Z,98904.19
2023-05-04T01:14:48.560Z,98909.72
2023-05-04T01:15:50.041Z,98921.81
2023-05-04T01:16:56.199Z,98908.56
2023-05-04T01:17:57.997Z,98915.78
2023-05-04T01:18:59.509Z,98915.56
2023-05-04T01:20:01.044Z,98912.78
2023-05-04T01:21:02.658Z,98909.09
2023-05-04T01:22:04.185Z,98915.09
2023-05-04T01:23:05.783Z,98916.22
2023-05-04T01:24:07.352Z,98908.31
2023-05-04T01:25:09.115Z,98914.03
2023-05-04T01:26:24.526Z,98914.38
2023-05-04T01:27:36.380Z,98913.00
2023-05-04T01:29:01.000Z,98912.03
2023-05-04T01:30:06.015Z,98907.88
2023-05-04T01:31:09.140Z,98914.34
2023-05-04T01:32:10.762Z,98911.22
2023-05-04T01:33:12.433Z,98907.03
2023-05-04T01:34:14.037Z,98916.75
2023-05-04T01:35:16.259Z,98914.13
2023-05-04T01:36:19.535Z,98912.91
2023-05-04T01:37:21.231Z,98909.53
2023-05-04T01:38:22.729Z,98913.31
2023-05-04T01:39:24.241Z,98908.09
2023-05-04T01:40:25.764Z,98906.06
2023-05-04T01:41:27.391Z,98915.41
2023-05-04T01:42:28.888Z,98905.25
2023-05-04T01:43:30.997Z,98911.66
2023-05-04T01:44:32.726Z,98907.28
2023-05-04T01:45:34.383Z,98913.53
2023-05-04T01:46:36.104Z,98911.88
2023-05-04T01:47:37.771Z,98906.06
2023-05-04T01:48:39.314Z,98915.84
2023-05-04T01:49:40.841Z,98903.38
2023-05-04T01:50:42.363Z,98908.78
2023-05-04T01:51:45.211Z,98914.19
2023-05-04T01:52:46.719Z,98909.59
2023-05-04T01:53:48.270Z,98913.13
2023-05-04T01:54:49.798Z,98906.78
2023-05-04T01:55:51.384Z,98914.19
2023-05-04T01:56:52.926Z,98916.31
2023-05-04T01:57:54.447Z,98913.97
2023-05-04T01:58:55.961Z,98913.38
2023-05-04T01:59:57.493Z,98903.91
2023-05-04T02:00:59.371Z,98910.75
2023-05-04T02:02:01.026Z,98913.31
2023-05-04T02:03:02.920Z,98903.31
2023-05-04T02:04:04.971Z,98912.38
2023-05-04T02:05:07.254Z,98898.88
2023-05-04T02:06:08.875Z,98908.41
2023-05-04T02:07:10.423Z,98908.84
2023-05-04T02:08:11.939Z,98907.00
2023-05-04T02:09:13.623Z,98910.72
2023-05-04T02:10:15.135Z,98916.75
2023-05-04T02:11:16.621Z,98912.16
2023-05-04T02:12:18.118Z,98917.34
2023-05-04T02:13:19.740Z,98914.66
2023-05-04T02:14:21.284Z,98911.94
2023-05-04T02:15:22.813Z,98909.69
2023-05-04T02:16:24.370Z,98913.00
2023-05-04T02:17:26.039Z,98914.44
2023-05-04T02:18:27.577Z,98914.56
2023-05-04T02:19:29.090Z,98915.06
2023-05-04T02:20:30.672Z,98917.47
2023-05-04T02:21:32.181Z,98916.63
2023-05-04T02:22:33.695Z,98906.09
2023-05-04T02:23:35.197Z,98908.53
2023-05-04T02:24:36.860Z,98908.91
2023-05-04T02:25:43.852Z,98900.81
2023-05-04T02:26:45.704Z,98903.78
2023-05-04T02:27:47.248Z,98903.13
2023-05-04T02:28:48.821Z,98913.03
2023-05-04T02:29:50.353Z,98902.22
2023-05-04T02:30:51.960Z,98905.75
2023-05-04T02:31:53.473Z,98902.00
2023-05-04T02:32:55.090Z,98907.81
2023-05-04T02:33:56.647Z,98901.78
2023-05-04T02:34:58.316Z,98904.56
2023-05-04T02:35:59.875Z,98907.09
2023-05-04T02:37:01.374Z,98899.81
2023-05-04T02:38:02.997Z,98898.88
2023-05-04T02:39:04.505Z,98905.44
2023-05-04T02:40:06.928Z,98899.81
2023-05-04T02:41:08.740Z,98901.97
2023-05-04T02:42:10.361Z,98894.91
2023-05-04T02:43:11.917Z,98896.56
2023-05-04T02:44:13.430Z,98900.22
2023-05-04T02:45:15.017Z,98900.19
2023-05-04T02:46:17.063Z,98901.88
2023-05-04T02:47:18.657Z,98896.06
2023-05-04T02:48:20.209Z,98893.97
2023-05-04T02:49:21.704Z,98908.91
2023-05-04T02:50:23.238Z,98895.97
2023-05-04T02:51:24.819Z,98899.31
2023-05-04T02:52:26.321Z,98902.19
2023-05-04T02:53:27.901Z,98895.94
2023-05-04T02:54:29.432Z,98900.31
2023-05-04T02:55:30.980Z,98903.84
2023-05-04T02:56:32.505Z,98903.84
2023-05-04T02:57:33.996Z,98892.50
2023-05-04T02:58:35.515Z,98902.41
2023-05-04T02:59:37.272Z,98904.88
2023-05-04T03:00:38.796Z,98901.13
2023-05-04T03:01:40.465Z,98904.69
2023-05-04T03:02:42.295Z,98904.47
2023-05-04T03:03:44.029Z,98908.81
2023-05-04T03:04:45.812Z,98908.22
2023-05-04T03:05:47.512Z,98916.53
2023-05-04T03:06:49.022Z,98911.56
2023-05-04T03:07:50.868Z,98911.97
2023-05-04T03:08:52.377Z,98917.16
2023-05-04T03:09:53.891Z,98905.31
2023-05-04T03:10:55.728Z,98914.13
2023-05-04T03:11:57.234Z,98903.16
2023-05-04T03:13:03.800Z,98902.81
2023-05-04T03:14:06.635Z,98911.25
2023-05-04T03:15:08.613Z,98906.28
2023-05-04T03:16:11.233Z,98909.69
2023-05-04T03:17:12.761Z,98906.34
2023-05-04T03:18:14.301Z,98906.31
2023-05-04T03:19:18.957Z,98907.53
2023-05-04T03:20:23.100Z,98910.44
2023-05-04T03:21:24.933Z,98911.91
2023-05-04T03:22:26.403Z,98913.97
2023-05-04T03:23:27.889Z,98912.66
2023-05-04T03:24:29.401Z,98923.09
2023-05-04T03:25:30.901Z,98914.63
2023-05-04T03:26:32.416Z,98908.50
2023-05-04T03:27:33.934Z,98909.19
2023-05-04T03:28:35.473Z,98913.16
2023-05-04T03:29:37.045Z,98916.94
2023-05-04T03:30:38.607Z,98911.53
2023-05-04T03:31:40.609Z,98917.41
2023-05-04T03:32:42.201Z,98914.44
2023-05-04T03:33:43.751Z,98903.03
2023-05-04T03:34:45.856Z,98909.50
2023-05-04T03:35:47.548Z,98906.00
2023-05-04T03:36:49.632Z,98894.38
2023-05-04T03:37:51.135Z,98896.84
2023-05-04T03:38:52.638Z,98894.09
2023-05-04T03:39:54.147Z,98900.31
2023-05-04T03:40:56.453Z,98899.91
2023-05-04T03:41:58.313Z,98895.13
2023-05-04T03:42:59.825Z,98901.72
2023-05-04T03:44:01.361Z,98900.09
2023-05-04T03:45:04.033Z,98897.41
2023-05-04T03:46:05.773Z,98898.38
2023-05-04T03:47:08.166Z,98896.72
2023-05-04T03:48:09.743Z,98899.47
2023-05-04T03:49:11.287Z,98894.97
2023-05-04T03:50:13.416Z,98901.56
2023-05-04T03:51:15.276Z,98901.38
2023-05-04T03:52:16.858Z,98894.13
2023-05-04T03:53:18.367Z,98900.16
2023-05-04T03:54:19.879Z,98903.66
2023-05-04T03:55:21.407Z,98901.56
2023-05-04T03:56:23.271Z,98907.78
2023-05-04T03:57:24.793Z,98909.25
2023-05-04T03:58:26.377Z,98916.31
2023-05-04T03:59:28.034Z,98913.66
2023-05-04T04:00:29.792Z,98910.28
2023-05-04T04:01:31.613Z,98902.03
2023-05-04T04:02:33.194Z,98908.84
2023-05-04T04:03:36.660Z,98909.47
2023-05-04T04:04:38.304Z,98901.97
2023-05-04T04:05:39.902Z,98905.25
2023-05-04T04:06:43.423Z,98897.78
2023-05-04T04:07:45.259Z,98906.91
2023-05-04T04:08:46.777Z,98907.31
2023-05-04T04:09:48.332Z,98904.88
2023-05-04T04:10:49.937Z,98909.25
2023-05-04T04:11:51.557Z,98900.72
2023-05-04T04:12:53.121Z,98900.72
2023-05-04T04:13:54.685Z,98909.25
2023-05-04T04:14:56.300Z,98900.09
2023-05-04T04:15:57.965Z,98907.31
2023-05-04T04:16:59.533Z,98911.06
2023-05-04T04:18:01.164Z,98905.41
2023-05-04T04:19:02.782Z,98910.91
2023-05-04T04:20:04.815Z,98905.72
2023-05-04T04:21:06.918Z,98911.94
2023-05-04T04:22:08.478Z,98909.59
2023-05-04T04:23:10.004Z,98904.97
2023-05-04T04:24:11.510Z,98903.53
2023-05-04T04:25:13.623Z,98896.47
2023-05-04T04:26:15.956Z,98902.28
2023-05-04T04:27:17.714Z,98904.34
2023-05-04T04:28:19.259Z,98904.00
2023-05-04T04:29:20.928Z,98908.16
2023-05-04T04:30:22.937Z,98907.53
2023-05-04T04:31:24.542Z,98919.97
2023-05-04T04:32:26.130Z,98911.47
2023-05-04T04:33:27.701Z,98903.22
2023-05-04T04:34:29.244Z,98907.97
2023-05-04T04:35:32.715Z,98911.13
2023-05-04T04:36:35.005Z,98906.72
2023-05-04T04:37:36.725Z,98910.22
2023-05-04T04:38:39.714Z,98901.09
2023-05-04T04:39:41.169Z,98913.91
2023-05-04T04:40:42.862Z,98910.16
2023-05-04T04:41:44.390Z,98912.25
2023-05-04T04:42:46.249Z,98911.06
2023-05-04T04:43:48.015Z,98910.38
2023-05-04T04:44:49.880Z,98915.31
2023-05-04T04:45:54.134Z,98911.75
2023-05-04T04:46:55.919Z,98915.03
2023-05-04T04:47:57.644Z,98914.16
2023-05-04T04:48:59.233Z,98912.47
2023-05-04T04:50:01.048Z,98915.56
2023-05-04T04:51:02.628Z,98912.84
2023-05-04T04:52:04.709Z,98912.44
2023-05-04T04:53:06.266Z,98909.25
2023-05-04T04:54:07.796Z,98914.03
2023-05-04T04:55:09.529Z,98916.91
2023-05-04T04:56:11.391Z,98919.56
2023-05-04T04:57:12.887Z,98912.66
2023-05-04T04:58:14.432Z,98911.63
2023-05-04T04:59:15.951Z,98919.88
2023-05-04T05:00:17.866Z,98912.16
2023-05-04T05:01:19.501Z,98918.81
2023-05-04T05:02:21.029Z,98920.81
2023-05-04T05:03:22.622Z,98914.59
2023-05-04T05:04:25.218Z,98910.19
2023-05-04T05:05:27.038Z,98921.16
2023-05-04T05:06:28.566Z,98918.00
2023-05-04T05:07:30.151Z,98921.09
2023-05-04T05:08:32.700Z,98914.88
2023-05-04T05:09:34.822Z,98921.97
2023-05-04T05:10:36.438Z,98919.06
2023-05-04T05:11:38.172Z,98921.09
2023-05-04T05:12:39.851Z,98919.56
2023-05-04T05:13:41.373Z,98915.16
2023-05-04T05:14:43.199Z,98915.31
2023-05-04T05:15:45.035Z,98911.13
2023-05-04T05:16:46.610Z,98913.41
2023-05-04T05:17:48.219Z,98919.13
2023-05-04T05:18:50.642Z,98910.19
2023-05-04T05:19:52.543Z,98912.59
2023-05-04T05:20:54.511Z,98915.00
2023-05-04T05:21:57.110Z,98910.78
2023-05-04T05:22:58.867Z,98906.16
2023-05-04T05:24:01.747Z,98908.53
2023-05-04T05:25:04.393Z,98906.22
2023-05-04T05:26:06.384Z,98915.25
2023-05-04T05:27:08.322Z,98908.97
2023-05-04T05:28:10.319Z,98903.69
2023-05-04T05:29:11.822Z,98913.13
2023-05-04T05:30:13.831Z,98908.72
2023-05-04T05:31:15.874Z,98912.16
2023-05-04T05:32:17.516Z,98894.66
2023-05-04T05:33:19.108Z,98920.50
2023-05-04T05:34:20.707Z,98904.41
2023-05-04T05:35:22.247Z,98913.44
2023-05-04T05:36:23.768Z,98904.97
2023-05-04T05:37:25.285Z,98904.06
2023-05-04T05:38:26.868Z,98913.75
2023-05-04T05:39:29.210Z,98908.72
2023-05-04T05:40:31.604Z,98903.41
2023-05-04T05:41:33.137Z,98910.03
2023-05-04T05:42:34.632Z,98903.31
2023-05-04T05:43:38.577Z,98911.34
2023-05-04T05:44:40.176Z,98909.38
2023-05-04T05:45:41.708Z,98902.53
2023-05-04T05:46:43.388Z,98908.44
2023-05-04T05:47:45.045Z,98895.84
2023-05-04T05:48:46.600Z,98903.91
2023-05-04T05:49:48.117Z,98901.31
2023-05-04T05:50:49.684Z,98901.22
2023-05-04T05:51:51.206Z,98900.28
2023-05-04T05:52:52.711Z,98905.00
2023-05-04T05:53:54.218Z,98897.69
2023-05-04T05:54:55.784Z,98907.00
2023-05-04T05:55:57.352Z,98906.19
2023-05-04T05:56:58.943Z,98910.09
2023-05-04T05:58:00.503Z,98904.53
2023-05-04T05:59:02.247Z,98903.47
2023-05-04T06:00:05.374Z,98907.47
2023-05-04T06:01:07.074Z,98909.03
2023-05-04T06:02:08.651Z,98906.19
2023-05-04T06:03:10.390Z,98907.16
2023-05-04T06:04:12.059Z,98909.97
2023-05-04T06:05:14.349Z,98905.13
2023-05-04T06:06:16.619Z,98908.56
2023-05-04T06:07:19.455Z,98884.69
2023-05-04T06:08:21.024Z,98915.50
2023-05-04T06:09:22.548Z,98908.25
2023-05-04T06:10:24.425Z,98905.69
2023-05-04T06:11:27.003Z,98906.03
2023-05-04T06:12:28.679Z,98908.00
2023-05-04T06:13:30.277Z,98903.75
2023-05-04T06:14:31.856Z,98895.44
2023-05-04T06:15:33.496Z,98893.72
2023-05-04T06:16:35.675Z,98898.91
2023-05-04T06:17:37.427Z,98897.50
2023-05-04T06:18:38.942Z,98897.59
2023-05-04T06:19:40.588Z,98900.31
2023-05-04T06:20:42.118Z,98895.94
2023-05-04T06:21:43.690Z,98892.84
2023-05-04T06:22:45.188Z,98901.94
2023-05-04T06:23:47.700Z,98895.16
2023-05-04T06:24:49.246Z,98887.59
2023-05-04T06:25:50.843Z,98887.72
2023-05-04T06:26:52.366Z,98889.44
2023-05-04T06:27:53.897Z,98885.75
2023-05-04T06:28:55.453Z,98886.34
2023-05-04T06:29:57.013Z,98888.75
2023-05-04T06:30:58.789Z,98894.38
2023-05-04T06:32:00.871Z,98896.94
2023-05-04T06:33:04.282Z,98892.56
2023-05-04T06:34:06.228Z,98890.31
2023-05-04T06:35:09.415Z,98894.09
2023-05-04T06:36:12.102Z,98891.19
2023-05-04T06:37:14.852Z,98887.28
2023-05-04T06:38:17.651Z,98884.25
2023-05-04T06:39:19.226Z,98884.75
2023-05-04T06:40:20.796Z,98887.69
2023-05-04T06:41:22.436Z,98890.28
2023-05-04T06:42:24.072Z,98873.84
2023-05-04T06:43:25.592Z,98889.28
2023-05-04T06:44:27.671Z,98886.72
2023-05-04T06:45:29.444Z,98871.03
2023-05-04T06:46:31.560Z,98887.16
2023-05-04T06:47:36.768Z,98894.88
2023-05-04T06:48:38.637Z,98883.66
2023-05-04T06:49:40.587Z,98887.59
2023-05-04T06:50:42.387Z,98880.44
2023-05-04T06:51:44.266Z,98889.44
2023-05-04T06:52:46.473Z,98883.22
2023-05-04T06:53:48.142Z,98889.97
2023-05-04T06:54:50.129Z,98889.16
2023-05-04T06:55:51.694Z,98896.44
2023-05-04T06:56:53.468Z,98889.16
2023-05-04T06:57:55.010Z,98888.44
2023-05-04T06:58:56.750Z,98881.69
2023-05-04T06:59:58.361Z,98886.22
2023-05-04T07:00:59.901Z,98890.84
2023-05-04T07:02:01.566Z,98880.44
2023-05-04T07:03:03.123Z,98887.00
2023-05-04T07:04:04.868Z,98878.47
2023-05-04T07:05:06.699Z,98883.59
2023-05-04T07:06:08.597Z,98873.28
2023-05-04T07:07:10.131Z,98873.16
2023-05-04T07:08:12.432Z,98879.38
2023-05-04T07:09:16.578Z,98871.53
2023-05-04T07:10:19.546Z,98870.88
2023-05-04T07:11:21.180Z,98882.66
2023-05-04T07:12:22.717Z,98875.91
2023-05-04T07:13:24.738Z,98866.22
2023-05-04T07:14:26.726Z,98883.31
2023-05-04T07:15:28.371Z,98873.44
2023-05-04T07:16:30.007Z,98871.13
2023-05-04T07:17:32.411Z,98877.16
2023-05-04T07:18:34.066Z,98874.06
2023-05-04T07:19:36.402Z,98872.53
2023-05-04T07:20:37.969Z,98876.06
2023-05-04T07:21:39.543Z,98873.56
2023-05-04T07:22:41.274Z,98875.09
2023-05-04T07:23:42.984Z,98880.94
2023-05-04T07:24:44.539Z,98878.34
2023-05-04T07:25:46.197Z,98884.16
2023-05-04T07:26:47.794Z,98882.41
2023-05-04T07:27:49.349Z,98882.59
2023-05-04T07:28:50.886Z,98878.88
2023-05-04T07:29:52.771Z,98877.19
2023-05-04T07:30:54.518Z,98871.91
2023-05-04T07:31:56.271Z,98879.69
2023-05-04T07:32:58.002Z,98873.03
2023-05-04T07:33:59.532Z,98862.41
2023-05-04T07:35:01.068Z,98864.91
2023-05-04T07:36:02.598Z,98859.41
2023-05-04T07:37:05.120Z,98855.94
2023-05-04T07:38:06.704Z,98865.09
2023-05-04T07:39:08.242Z,98860.66
2023-05-04T07:40:10.461Z,98857.97
2023-05-04T07:41:12.052Z,98856.75
2023-05-04T07:42:13.681Z,98854.59
2023-05-04T07:43:15.253Z,98856.97
2023-05-04T07:44:17.139Z,98859.94
2023-05-04T07:45:18.758Z,98863.25
2023-05-04T07:46:20.468Z,98857.34
2023-05-04T07:47:22.777Z,98854.25
2023-05-04T07:48:26.576Z,98852.75
2023-05-04T07:49:28.600Z,98843.19
2023-05-04T07:50:30.238Z,98850.78
2023-05-04T07:51:31.840Z,98839.06
2023-05-04T07:52:33.391Z,98851.50
2023-05-04T07:53:35.031Z,98853.22
2023-05-04T07:54:36.870Z,98852.25
2023-05-04T07:55:38.642Z,98846.84
2023-05-04T07:56:40.172Z,98848.50
2023-05-04T07:57:41.695Z,98840.00
2023-05-04T07:58:43.221Z,98843.59
2023-05-04T07:59:44.740Z,98850.72
2023-05-04T08:00:46.387Z,98844.38
2023-05-04T08:01:47.998Z,98842.22
2023-05-04T08:02:49.735Z,98849.59
2023-05-04T08:03:51.721Z,98859.16
2023-05-04T08:04:53.324Z,98846.19
2023-05-04T08:05:54.867Z,98851.19
2023-05-04T08:06:56.441Z,98846.59
2023-05-04T08:07:58.022Z,98840.00
2023-05-04T08:08:59.886Z,98844.69
2023-05-04T08:10:01.448Z,98851.81
2023-05-04T08:11:12.286Z,98842.91
2023-05-04T08:12:20.551Z,98849.06
2023-05-04T08:13:22.207Z,98843.03
2023-05-04T08:14:23.791Z,98842.50
2023-05-04T08:15:25.404Z,98835.34
2023-05-04T08:16:28.382Z,98852.38
2023-05-04T08:17:30.046Z,98846.84
2023-05-04T08:18:31.972Z,98840.75
2023-05-04T08:19:33.866Z,98844.66
2023-05-04T08:20:35.498Z,98848.47
2023-05-04T08:21:37.096Z,98845.38
2023-05-04T08:22:38.804Z,98841.44
2023-05-04T08:23:40.694Z,98846.66
2023-05-04T08:24:42.256Z,98832.91
2023-05-04T08:25:43.793Z,98842.75
2023-05-04T08:26:55.689Z,98836.41
2023-05-04T08:28:01.526Z,98841.47
2023-05-04T08:29:07.653Z,98827.91
2023-05-04T08:30:10.156Z,98832.72
2023-05-04T08:31:12.511Z,98829.81
2023-05-04T08:32:14.171Z,98833.00
2023-05-04T08:33:15.726Z,98826.59
2023-05-04T08:34:17.607Z,98829.25
2023-05-04T08:35:19.173Z,98838.88
2023-05-04T08:36:20.835Z,98834.03
2023-05-04T08:37:22.435Z,98829.69
2023-05-04T08:38:24.110Z,98829.31
2023-05-04T08:39:25.800Z,98829.16
2023-05-04T08:40:27.469Z,98829.59
2023-05-04T08:41:29.107Z,98839.94
2023-05-04T08:42:31.806Z,98834.91
2023-05-04T08:43:37.124Z,98837.75
2023-05-04T08:44:38.731Z,98836.75
2023-05-04T08:45:40.409Z,98836.56
2023-05-04T08:46:42.298Z,98830.25
2023-05-04T08:47:45.123Z,98836.75
2023-05-04T08:48:47.034Z,98833.38
2023-05-04T08:49:48.582Z,98837.53
2023-05-04T08:50:50.181Z,98840.41
2023-05-04T08:51:51.815Z,98831.41
2023-05-04T08:52:53.528Z,98844.47
2023-05-04T08:53:55.145Z,98843.06
2023-05-04T08:54:57.009Z,98847.81
2023-05-04T08:55:59.320Z,98837.84
2023-05-04T08:57:02.271Z,98832.25
2023-05-04T08:58:10.361Z,98830.19
2023-05-04T08:59:22.953Z,98818.91
2023-05-04T09:00:24.690Z,98828.31
2023-05-04T09:01:26.490Z,98831.22
2023-05-04T09:02:28.156Z,98821.53
2023-05-04T09:03:30.348Z,98822.03
2023-05-04T09:04:31.977Z,98825.91
2023-05-04T09:05:33.569Z,98822.56
2023-05-04T09:06:35.311Z,98828.06
2023-05-04T09:07:36.874Z,98819.97
2023-05-04T09:08:38.769Z,98823.91
2023-05-04T09:09:40.335Z,98821.03
2023-05-04T09:10:41.869Z,98823.19
2023-05-04T09:11:43.731Z,98821.97
2023-05-04T09:12:45.284Z,98810.66
2023-05-04T09:13:47.734Z,98827.16
2023-05-04T09:14:49.274Z,98803.19
2023-05-04T09:15:57.423Z,98819.91
2023-05-04T09:16:58.985Z,98822.53
2023-05-04T09:18:05.358Z,98817.34
2023-05-04T09:19:20.031Z,98818.31
2023-05-04T09:20:21.715Z,98817.50
2023-05-04T09:21:30.334Z,98822.56
2023-05-04T09:22:31.874Z,98814.53
2023-05-04T09:23:34.510Z,98804.34
2023-05-04T09:24:36.226Z,98807.03
2023-05-04T09:25:50.498Z,98806.56
2023-05-04T09:26:52.231Z,98808.06
2023-05-04T09:27:56.839Z,98804.47
2023-05-04T09:29:10.514Z,98795.88
2023-05-04T09:30:12.610Z,98806.66
2023-05-04T09:31:15.112Z,98800.56
2023-05-04T09:32:16.706Z,98797.59
2023-05-04T09:33:25.645Z,98802.09
2023-05-04T09:34:27.028Z,98794.19
2023-05-04T09:35:33.768Z,98802.53
2023-05-04T09:36:35.792Z,98800.53
2023-05-04T09:37:46.887Z,98788.66
2023-05-04T09:38:49.048Z,98784.53
2023-05-04T09:39:53.995Z,98800.75
2023-05-04T09:40:59.282Z,98791.22
2023-05-04T09:42:00.856Z,98802.78
2023-05-04T09:43:03.098Z,98793.22
2023-05-04T09:44:05.089Z,98798.03
2023-05-04T09:45:08.068Z,98788.28
2023-05-04T09:46:17.457Z,98785.63
2023-05-04T09:47:19.088Z,98786.59
2023-05-04T09:48:31.275Z,98778.06
2023-05-04T09:49:37.458Z,98786.25
2023-05-04T09:50:40.196Z,98778.41
2023-05-04T09:51:41.980Z,98783.53
2023-05-04T09:52:44.614Z,98777.41
2023-05-04T09:53:46.236Z,98778.19
2023-05-04T09:54:47.715Z,98775.34
2023-05-04T09:55:56.635Z,98763.72
2023-05-04T09:57:15.876Z,98771.91
2023-05-04T09:58:18.473Z,98774.47
2023-05-04T09:59:20.267Z,98766.97
2023-05-04T10:00:21.882Z,98761.25
2023-05-04T10:01:24.122Z,98769.47
2023-05-04T10:02:26.304Z,98755.16
2023-05-04T10:03:28.230Z,98758.00
2023-05-04T10:04:29.807Z,98751.63
2023-05-04T10:05:31.434Z,98761.47
2023-05-04T10:06:33.219Z,98749.63
2023-05-04T10:07:34.848Z,98759.03
2023-05-04T10:08:36.384Z,98760.00
2023-05-04T10:09:37.887Z,98758.81
2023-05-04T10:10:39.906Z,98764.59
2023-05-04T10:11:42.397Z,98755.09
2023-05-04T10:12:46.700Z,98756.34
2023-05-04T10:13:48.349Z,98758.34
2023-05-04T10:14:49.871Z,98745.38
2023-05-04T10:16:17.730Z,98749.88
2023-05-04T10:17:31.372Z,98756.31
2023-05-04T10:19:04.932Z,98751.88
2023-05-04T10:20:09.654Z,98744.47
2023-05-04T10:21:32.614Z,98749.63
2023-05-04T10:23:08.284Z,98730.81
2023-05-04T10:24:44.725Z,98744.22
2023-05-04T10:25:59.674Z,98736.13
2023-05-04T10:27:04.797Z,98736.88
2023-05-04T10:28:28.080Z,98730.47
2023-05-04T10:29:30.089Z,98742.53
2023-05-04T10:30:31.679Z,98735.47
2023-05-04T10:31:43.024Z,98725.16
2023-05-04T10:32:44.722Z,98725.06
2023-05-04T10:33:46.477Z,98727.53
2023-05-04T10:34:48.038Z,98731.88
2023-05-04T10:35:51.408Z,98723.00
2023-05-04T10:36:52.964Z,98726.19
2023-05-04T10:37:55.662Z,98719.81
2023-05-04T10:38:57.196Z,98716.38
2023-05-04T10:39:58.717Z,98716.06
2023-05-04T10:41:00.365Z,98716.78
2023-05-04T10:42:03.965Z,98715.47
2023-05-04T10:43:07.274Z,98714.72
2023-05-04T10:44:10.067Z,98716.13
2023-05-04T10:45:13.131Z,98711.75
2023-05-04T10:46:18.854Z,98702.81
2023-05-04T10:47:32.960Z,98710.25
2023-05-04T10:48:37.654Z,98712.00
2023-05-04T10:49:39.238Z,98701.31
2023-05-04T10:50:49.901Z,98705.72
2023-05-04T10:52:04.640Z,98706.75
2023-05-04T10:53:06.272Z,98697.97
2023-05-04T10:54:18.062Z,98700.84
2023-05-04T10:55:20.224Z,98690.22
2023-05-04T10:56:28.206Z,98692.38
2023-05-04T10:57:30.589Z,98688.72
2023-05-04T10:58:32.212Z,98685.78
2023-05-04T10:59:36.036Z,98675.28
2023-05-04T11:00:39.015Z,98688.75
2023-05-04T11:01:46.564Z,98689.19
2023-05-04T11:02:48.874Z,98692.34
2023-05-04T11:03:50.813Z,98682.38
2023-05-04T11:05:08.279Z,98679.94
2023-05-04T11:06:23.426Z,98670.44
2023-05-04T11:07:36.703Z,98664.72
2023-05-04T11:08:38.253Z,98667.78
2023-05-04T11:09:41.792Z,98671.78
2023-05-04T11:10:43.360Z,98671.22
2023-05-04T11:11:44.880Z,98668.59
2023-05-04T11:12:46.467Z,98669.22
2023-05-04T11:13:48.129Z,98674.91
2023-05-04T11:14:49.751Z,98670.91
2023-05-04T11:15:54.240Z,98674.34
2023-05-04T11:18:25.508Z,98669.06
2023-05-04T11:19:27.077Z,98672.56
2023-05-04T11:20:28.620Z,98661.03
2023-05-04T11:21:30.159Z,98665.03
2023-05-04T11:22:32.772Z,98659.22
2023-05-04T11:23:34.379Z,98662.75
2023-05-04T11:24:42.459Z,98670.34
2023-05-04T11:25:44.057Z,98662.41
2023-05-04T11:26:47.990Z,98669.03
2023-05-04T11:27:50.547Z,98671.56
2023-05-04T11:28:52.128Z,98668.22
2023-05-04T11:29:57.361Z,98656.28
2023-05-04T11:30:58.967Z,98658.53
2023-05-04T11:32:01.831Z,98658.06
2023-05-04T11:33:05.723Z,98657.47
2023-05-04T11:34:07.390Z,98650.00
2023-05-04T11:35:10.176Z,98646.34
2023-05-04T11:36:12.399Z,98648.88
2023-05-04T11:37:14.446Z,98632.03
2023-05-04T11:38:21.760Z,98652.56
2023-05-04T11:39:23.385Z,98649.28
2023-05-04T11:40:25.969Z,98653.22
2023-05-04T11:41:30.160Z,98645.88
2023-05-04T11:42:32.612Z,98640.22
2023-05-04T11:43:34.118Z,98634.28
2023-05-04T11:44:37.276Z,98644.28
2023-05-04T11:45:40.126Z,98647.22
2023-05-04T11:46:41.610Z,98649.97
2023-05-04T11:47:44.062Z,98650.25
2023-05-04T11:48:46.160Z,98651.53
2023-05-04T11:49:47.767Z,98643.78
2023-05-04T11:50:49.383Z,98634.91
2023-05-04T11:51:50.944Z,98645.31
2023-05-04T11:53:02.727Z,98647.09
2023-05-04T11:54:07.568Z,98648.84
2023-05-04T11:55:13.565Z,98638.88
2023-05-04T11:56:15.119Z,98633.59
2023-05-04T11:57:23.516Z,98630.63
2023-05-04T11:58:25.706Z,98619.28
2023-05-04T11:59:27.206Z,98620.91
2023-05-04T12:00:39.750Z,98623.69
2023-05-04T12:01:42.044Z,98619.53
2023-05-04T12:02:43.669Z,98614.00
2023-05-04T12:03:53.784Z,98616.22
2023-05-04T12:04:56.465Z,98618.75
2023-05-04T12:05:58.458Z,98618.25
2023-05-04T12:07:01.818Z,98614.66
2023-05-04T12:08:03.697Z,98614.03
2023-05-04T12:09:08.758Z,98619.50
2023-05-04T12:10:10.932Z,98612.84
2023-05-04T12:11:26.265Z,98623.91
2023-05-04T12:12:35.133Z,98617.75
2023-05-04T12:13:36.840Z,98620.75
2023-05-04T12:14:50.592Z,98624.22
2023-05-04T12:15:52.092Z,98620.16
2023-05-04T12:16:57.632Z,98621.00
2023-05-04T12:18:01.829Z,98626.28
2023-05-04T12:19:09.305Z,98626.97
2023-05-04T12:20:11.617Z,98611.69